Time;durP1;ratioP1;P1;durP2;ratioP2;P2;SDS_P1;SDS_P2;PMS_P1;PMS_P2;Temp;Humidity;BMP_temperature;BMP_pressure;BME280_temperature;BME280_humidity;BME280_pressure;Samples;Min_cycle;Max_cycle;Signal;HPM_P1;HPM_P2
2021/08/22 00:01:14;;;;;;;;;3.80;3.80;;;;;;;;5061099;28;9674;-82
2021/08/22 00:03:42;;;;;;;;;4.40;4.40;;;;;;;;5052549;28;8862;-79
2021/08/22 00:06:10;;;;;;;;;4.20;4.20;;;;;;;;5063077;28;8864;-88
2021/08/22 00:08:38;;;;;;;;;4.60;4.60;;;;;;;;5066407;28;8876;-81
2021/08/22 00:11:05;;;;;;;;;4.80;4.80;;;;;;;;5061458;28;8888;-88
2021/08/22 00:13:33;;;;;;;;;5.20;5.20;;;;;;;;5051469;28;8899;-83
2021/08/22 00:16:02;;;;;;;;;6.00;6.00;;;;;;;;5066943;28;8880;-84
2021/08/22 00:18:30;;;;;;;;;4.60;4.60;;;;;;;;5063893;28;8890;-87
2021/08/22 00:20:58;;;;;;;;;6.20;5.60;;;;;;;;5063104;28;8876;-84
2021/08/22 00:23:25;;;;;;;;;3.00;3.00;;;;;;;;5064402;28;8901;-85
2021/08/22 00:25:53;;;;;;;;;10.00;6.80;;;;;;;;5058944;28;8902;-85
2021/08/22 00:28:20;;;;;;;;;5.00;5.00;;;;;;;;5065926;28;8909;-88
2021/08/22 00:30:47;;;;;;;;;5.80;4.80;;;;;;;;5062104;28;8815;-84
2021/08/22 00:33:16;;;;;;;;;5.40;5.40;;;;;;;;5065061;28;9575;-86
2021/08/22 00:35:43;;;;;;;;;5.00;5.00;;;;;;;;5053424;28;9479;-89
2021/08/22 00:38:10;;;;;;;;;6.20;6.20;;;;;;;;5065170;28;8868;-84
2021/08/22 00:40:37;;;;;;;;;4.00;4.00;;;;;;;;5056527;28;8884;-85
2021/08/22 00:43:05;;;;;;;;;8.80;5.40;;;;;;;;5055174;28;8870;-86
2021/08/22 00:45:33;;;;;;;;;5.20;5.20;;;;;;;;5053148;28;8860;-89
2021/08/22 00:48:00;;;;;;;;;7.00;5.40;;;;;;;;5067131;28;8844;-89
2021/08/22 00:50:29;;;;;;;;;5.00;5.00;;;;;;;;5047863;28;8855;-86
2021/08/22 00:52:57;;;;;;;;;4.00;4.00;;;;;;;;5058689;28;9719;-86
2021/08/22 00:55:24;;;;;;;;;7.60;4.20;;;;;;;;5064529;28;8962;-84
2021/08/22 00:57:52;;;;;;;;;7.20;5.60;;;;;;;;5062655;28;8913;-83
2021/08/22 01:00:19;;;;;;;;;5.00;4.00;;;;;;;;5054697;28;9803;-83
2021/08/22 01:02:53;;;;;;;;;5.80;5.00;;;;;;;;5048657;28;9666;-84
2021/08/22 01:05:31;;;;;;;;;5.40;5.40;;;;;;;;5064335;28;8860;-85
2021/08/22 01:08:06;;;;;;;;;4.00;4.00;;;;;;;;5058314;28;8862;-86
2021/08/22 01:10:35;;;;;;;;;6.20;6.20;;;;;;;;5051221;28;8863;-85
2021/08/22 01:13:07;;;;;;;;;5.80;5.80;;;;;;;;5060333;28;8892;-84
2021/08/22 01:15:37;;;;;;;;;3.60;3.60;;;;;;;;5054764;28;8863;-81
2021/08/22 01:18:05;;;;;;;;;4.20;4.00;;;;;;;;5062749;28;8871;-82
2021/08/22 01:20:38;;;;;;;;;4.00;4.00;;;;;;;;5050628;28;8866;-78
2021/08/22 01:23:06;;;;;;;;;4.20;4.20;;;;;;;;5055764;28;8868;-86
2021/08/22 01:25:36;;;;;;;;;5.00;5.00;;;;;;;;5058841;28;8860;-85
2021/08/22 01:28:05;;;;;;;;;5.60;4.40;;;;;;;;5065919;28;8880;-87
2021/08/22 01:30:37;;;;;;;;;4.40;4.40;;;;;;;;5061447;28;8799;-86
2021/08/22 01:33:11;;;;;;;;;7.00;5.20;;;;;;;;5049238;28;8859;-87
2021/08/22 01:35:39;;;;;;;;;5.00;4.60;;;;;;;;5076836;28;8876;-83
2021/08/22 01:38:08;;;;;;;;;6.40;6.40;;;;;;;;5064307;28;8898;-84
2021/08/22 01:40:36;;;;;;;;;4.00;4.00;;;;;;;;5059758;28;8848;-86
2021/08/22 01:43:05;;;;;;;;;4.80;4.80;;;;;;;;5057909;28;8892;-80
2021/08/22 01:45:33;;;;;;;;;6.20;6.00;;;;;;;;5048236;28;9499;-86
2021/08/22 01:48:01;;;;;;;;;4.80;4.80;;;;;;;;5060686;28;8852;-87
2021/08/22 01:50:29;;;;;;;;;4.40;4.40;;;;;;;;5059960;28;8863;-86
2021/08/22 01:52:58;;;;;;;;;5.75;5.75;;;;;;;;5060070;28;8893;-85
2021/08/22 01:55:26;;;;;;;;;6.00;6.00;;;;;;;;5064344;28;8860;-87
2021/08/22 01:57:53;;;;;;;;;5.50;5.50;;;;;;;;5059022;28;8951;-88
2021/08/22 02:00:20;;;;;;;;;7.25;7.25;;;;;;;;5063688;28;8918;-88
2021/08/22 02:02:56;;;;;;;;;5.50;5.50;;;;;;;;5063532;28;8892;-83
2021/08/22 02:05:25;;;;;;;;;6.25;6.25;;;;;;;;5064674;28;8856;-79
2021/08/22 02:07:54;;;;;;;;;6.25;5.00;;;;;;;;5055423;28;8868;-87
2021/08/22 02:10:25;;;;;;;;;5.75;5.75;;;;;;;;5062415;28;8886;-84
2021/08/22 02:12:56;;;;;;;;;4.00;4.00;;;;;;;;5051307;28;8868;-85
2021/08/22 02:15:26;;;;;;;;;5.25;5.25;;;;;;;;5065470;28;8903;-87
2021/08/22 02:17:58;;;;;;;;;6.00;6.00;;;;;;;;5051325;28;8914;-87
2021/08/22 02:20:26;;;;;;;;;5.25;5.25;;;;;;;;5064422;28;9018;-89
2021/08/22 02:22:55;;;;;;;;;6.00;6.00;;;;;;;;5063781;28;8876;-84
2021/08/22 02:25:23;;;;;;;;;6.50;6.50;;;;;;;;5063288;28;8872;-88
2021/08/22 02:27:50;;;;;;;;;5.75;5.50;;;;;;;;5057796;28;8888;-80
2021/08/22 02:30:17;;;;;;;;;7.00;5.00;;;;;;;;5058081;28;8879;-86
2021/08/22 02:32:44;;;;;;;;;6.00;6.00;;;;;;;;5056876;28;8892;-84
2021/08/22 02:35:12;;;;;;;;;5.25;5.25;;;;;;;;5063711;28;8877;-86
2021/08/22 02:37:40;;;;;;;;;5.50;5.50;;;;;;;;5064958;28;8864;-84
2021/08/22 02:40:10;;;;;;;;;6.25;6.25;;;;;;;;5053194;28;8859;-83
2021/08/22 02:42:38;;;;;;;;;6.25;6.25;;;;;;;;5048751;28;8882;-86
2021/08/22 02:45:06;;;;;;;;;5.00;5.00;;;;;;;;5059503;28;8880;-86
2021/08/22 02:47:34;;;;;;;;;6.00;6.00;;;;;;;;5062833;28;8880;-88
2021/08/22 02:50:01;;;;;;;;;5.25;5.25;;;;;;;;5049605;28;8874;-82
2021/08/22 02:52:28;;;;;;;;;10.00;7.00;;;;;;;;5059419;28;8852;-86
2021/08/22 02:54:56;;;;;;;;;3.00;3.00;;;;;;;;5051933;28;8873;-85
2021/08/22 02:57:25;;;;;;;;;6.00;6.00;;;;;;;;5045229;28;8855;-88
2021/08/22 02:59:52;;;;;;;;;5.00;5.00;;;;;;;;5062211;28;8864;-89
2021/08/22 03:02:19;;;;;;;;;8.00;6.25;;;;;;;;5051303;28;8880;-86
2021/08/22 03:04:47;;;;;;;;;7.00;7.00;;;;;;;;5060218;28;8919;-84
2021/08/22 03:07:14;;;;;;;;;10.00;8.00;;;;;;;;5063794;28;8880;-89
2021/08/22 03:09:41;;;;;;;;;9.25;7.25;;;;;;;;5049278;28;8852;-86
2021/08/22 03:12:08;;;;;;;;;6.00;6.00;;;;;;;;5052855;28;8882;-88
2021/08/22 03:14:37;;;;;;;;;9.50;9.50;;;;;;;;5056286;28;8857;-79
2021/08/22 03:17:04;;;;;;;;;7.25;7.25;;;;;;;;5062769;28;8940;-87
2021/08/22 03:19:32;;;;;;;;;7.00;7.00;;;;;;;;5054493;28;8878;-85
2021/08/22 03:21:59;;;;;;;;;7.25;7.25;;;;;;;;5049182;28;8890;-85
2021/08/22 03:24:27;;;;;;;;;7.00;5.25;;;;;;;;5056111;28;8883;-81
2021/08/22 03:26:54;;;;;;;;;9.75;9.75;;;;;;;;5043616;28;8875;-87
2021/08/22 03:29:21;;;;;;;;;5.50;5.00;;;;;;;;5064049;28;8864;-83
2021/08/22 03:31:50;;;;;;;;;11.50;8.00;;;;;;;;5059361;28;8967;-90
2021/08/22 03:34:17;;;;;;;;;7.25;7.00;;;;;;;;5051062;28;8987;-85
2021/08/22 03:36:45;;;;;;;;;9.00;7.00;;;;;;;;5054092;28;8854;-87
2021/08/22 03:39:12;;;;;;;;;7.50;6.00;;;;;;;;5054084;28;8868;-90
2021/08/22 03:41:39;;;;;;;;;5.00;5.00;;;;;;;;5060397;28;8848;-85
2021/08/22 03:44:08;;;;;;;;;5.75;5.75;;;;;;;;5065827;28;9643;-88
2021/08/22 03:46:36;;;;;;;;;7.00;6.50;;;;;;;;5052671;28;8871;-87
2021/08/22 03:49:04;;;;;;;;;7.00;6.00;;;;;;;;5062938;28;8919;-87
2021/08/22 03:51:31;;;;;;;;;6.50;6.50;;;;;;;;5062339;28;9610;-88
2021/08/22 03:53:59;;;;;;;;;6.25;6.25;;;;;;;;5059340;28;8881;-84
2021/08/22 03:56:26;;;;;;;;;6.25;4.50;;;;;;;;5054666;28;8886;-91
2021/08/22 03:58:53;;;;;;;;;6.00;6.00;;;;;;;;5052481;28;8839;-82
2021/08/22 04:01:20;;;;;;;;;5.00;5.00;;;;;;;;5055818;28;8801;-89
2021/08/22 04:03:48;;;;;;;;;7.00;7.00;;;;;;;;5065943;28;8875;-83
2021/08/22 04:06:16;;;;;;;;;9.25;9.00;;;;;;;;5065290;28;8914;-88
2021/08/22 04:08:44;;;;;;;;;7.00;6.25;;;;;;;;5060385;28;8875;-87
2021/08/22 04:11:11;;;;;;;;;6.75;5.75;;;;;;;;5061539;28;8857;-78
2021/08/22 04:13:38;;;;;;;;;4.25;4.25;;;;;;;;5058486;28;8874;-88
2021/08/22 04:16:06;;;;;;;;;7.50;7.50;;;;;;;;5066065;28;8864;-79
2021/08/22 04:18:33;;;;;;;;;8.00;8.00;;;;;;;;5061710;28;9613;-81
2021/08/22 04:21:01;;;;;;;;;11.00;6.50;;;;;;;;5063015;28;8884;-88
2021/08/22 04:23:30;;;;;;;;;6.75;6.75;;;;;;;;5062356;28;8909;-87
2021/08/22 04:25:57;;;;;;;;;6.00;6.00;;;;;;;;5067075;28;9097;-88
2021/08/22 04:28:24;;;;;;;;;7.00;7.00;;;;;;;;5059360;28;8889;-78
2021/08/22 04:30:51;;;;;;;;;8.25;7.00;;;;;;;;5064433;28;8944;-88
2021/08/22 04:33:19;;;;;;;;;6.00;5.25;;;;;;;;5056062;28;8865;-85
2021/08/22 04:35:46;;;;;;;;;7.00;7.00;;;;;;;;5071036;28;8862;-89
2021/08/22 04:38:13;;;;;;;;;5.75;4.50;;;;;;;;5050094;28;8863;-87
2021/08/22 04:40:42;;;;;;;;;7.75;7.75;;;;;;;;5054899;28;8875;-88
2021/08/22 04:43:09;;;;;;;;;5.75;5.75;;;;;;;;5066982;28;8918;-88
2021/08/22 04:45:36;;;;;;;;;5.00;5.00;;;;;;;;5055684;28;8892;-87
2021/08/22 04:48:04;;;;;;;;;8.50;8.50;;;;;;;;5063014;28;8868;-87
2021/08/22 04:50:31;;;;;;;;;7.00;7.00;;;;;;;;5066429;28;8863;-83
2021/08/22 04:52:58;;;;;;;;;8.00;7.00;;;;;;;;5061516;28;8847;-82
2021/08/22 04:55:26;;;;;;;;;6.75;5.00;;;;;;;;5057278;28;8872;-77
2021/08/22 04:57:55;;;;;;;;;6.25;6.25;;;;;;;;5056608;28;8852;-85
2021/08/22 05:00:22;;;;;;;;;6.25;6.25;;;;;;;;5046398;28;8875;-90
2021/08/22 05:02:50;;;;;;;;;9.25;8.00;;;;;;;;5072854;28;8877;-89
2021/08/22 05:05:17;;;;;;;;;8.50;8.50;;;;;;;;5063726;28;8865;-89
2021/08/22 05:07:45;;;;;;;;;8.50;8.50;;;;;;;;5065517;28;8852;-80
2021/08/22 05:10:12;;;;;;;;;8.00;7.25;;;;;;;;5053442;28;8898;-89
2021/08/22 05:12:39;;;;;;;;;8.00;6.75;;;;;;;;5060575;28;8954;-88
2021/08/22 05:15:10;;;;;;;;;9.00;7.00;;;;;;;;5058119;28;8860;-85
2021/08/22 05:17:37;;;;;;;;;10.50;9.00;;;;;;;;5079598;28;8983;-85
2021/08/22 05:20:06;;;;;;;;;7.75;6.25;;;;;;;;5058952;28;8849;-87
2021/08/22 05:22:33;;;;;;;;;6.00;6.00;;;;;;;;5065360;28;8864;-84
2021/08/22 05:25:00;;;;;;;;;7.75;7.00;;;;;;;;5064578;28;8857;-84
2021/08/22 05:27:28;;;;;;;;;6.50;6.50;;;;;;;;5057057;28;8910;-85
2021/08/22 05:29:55;;;;;;;;;6.75;6.75;;;;;;;;5064032;28;8848;-83
2021/08/22 05:32:24;;;;;;;;;10.00;7.75;;;;;;;;5058045;28;8811;-85
2021/08/22 05:34:51;;;;;;;;;7.00;7.00;;;;;;;;5064753;28;8856;-87
2021/08/22 05:37:19;;;;;;;;;6.00;6.00;;;;;;;;5058290;28;8881;-83
2021/08/22 05:39:48;;;;;;;;;10.75;8.00;;;;;;;;5051206;28;8847;-85
2021/08/22 05:42:15;;;;;;;;;8.50;7.00;;;;;;;;5051421;28;8894;-88
2021/08/22 05:44:42;;;;;;;;;9.25;9.00;;;;;;;;5052257;28;8885;-87
2021/08/22 05:47:10;;;;;;;;;8.00;8.00;;;;;;;;5064437;28;8871;-86
2021/08/22 05:49:41;;;;;;;;;7.00;7.00;;;;;;;;5062311;28;8879;-83
2021/08/22 05:52:09;;;;;;;;;7.50;7.50;;;;;;;;5060130;28;9326;-81
2021/08/22 05:54:37;;;;;;;;;8.50;7.25;;;;;;;;5057731;28;8863;-82
2021/08/22 05:57:05;;;;;;;;;9.00;7.00;;;;;;;;5051798;28;8859;-83
2021/08/22 05:59:33;;;;;;;;;9.75;8.00;;;;;;;;5057844;28;8856;-82
2021/08/22 06:02:01;;;;;;;;;7.75;5.75;;;;;;;;5051128;28;8803;-85
2021/08/22 06:04:28;;;;;;;;;9.00;7.50;;;;;;;;5058310;28;8918;-84
2021/08/22 06:06:57;;;;;;;;;9.00;5.50;;;;;;;;5052630;28;8872;-85
2021/08/22 06:09:24;;;;;;;;;6.25;6.25;;;;;;;;5063144;28;8863;-87
2021/08/22 06:11:52;;;;;;;;;5.00;5.00;;;;;;;;5063175;28;9621;-87
2021/08/22 06:14:19;;;;;;;;;8.25;8.25;;;;;;;;5065777;28;8856;-89
2021/08/22 06:16:46;;;;;;;;;7.75;7.75;;;;;;;;5069020;28;8874;-82
2021/08/22 06:19:14;;;;;;;;;6.25;6.25;;;;;;;;5050015;28;8855;-88
2021/08/22 06:21:41;;;;;;;;;6.00;6.00;;;;;;;;5067186;28;8983;-86
2021/08/22 06:24:10;;;;;;;;;13.25;9.50;;;;;;;;5051796;28;8876;-78
2021/08/22 06:26:37;;;;;;;;;7.25;7.25;;;;;;;;5058557;28;8894;-82
2021/08/22 06:29:04;;;;;;;;;6.25;6.25;;;;;;;;5046211;28;8987;-83
2021/08/22 06:31:32;;;;;;;;;9.00;7.00;;;;;;;;5051845;28;8834;-88
2021/08/22 06:33:59;;;;;;;;;6.25;6.25;;;;;;;;5052458;28;8853;-79
2021/08/22 06:36:29;;;;;;;;;9.50;7.00;;;;;;;;5059710;28;8898;-79
2021/08/22 06:38:56;;;;;;;;;6.25;6.00;;;;;;;;5055426;28;8924;-79
2021/08/22 06:41:25;;;;;;;;;8.50;6.75;;;;;;;;5061688;28;8910;-78
2021/08/22 06:43:52;;;;;;;;;6.50;5.25;;;;;;;;5061793;28;8873;-82
2021/08/22 06:46:20;;;;;;;;;6.00;6.00;;;;;;;;5062856;28;8895;-80
2021/08/22 06:48:47;;;;;;;;;6.50;6.00;;;;;;;;5055234;28;8833;-80
2021/08/22 06:51:15;;;;;;;;;6.00;6.00;;;;;;;;5058246;28;8880;-81
2021/08/22 06:53:42;;;;;;;;;9.00;7.25;;;;;;;;5061093;28;8898;-80
2021/08/22 06:56:09;;;;;;;;;8.25;7.50;;;;;;;;5057359;28;8860;-79
2021/08/22 06:58:38;;;;;;;;;6.25;6.25;;;;;;;;5062297;28;8864;-78
2021/08/22 07:01:06;;;;;;;;;7.00;7.00;;;;;;;;5059439;28;8841;-80
2021/08/22 07:03:34;;;;;;;;;6.00;6.00;;;;;;;;5059121;28;9723;-80
2021/08/22 07:06:01;;;;;;;;;7.50;5.25;;;;;;;;5057151;28;8898;-80
2021/08/22 07:08:28;;;;;;;;;6.50;6.50;;;;;;;;5059538;28;8860;-82
2021/08/22 07:10:56;;;;;;;;;7.00;7.00;;;;;;;;5058806;28;8884;-79
2021/08/22 07:13:23;;;;;;;;;6.25;6.25;;;;;;;;5064308;28;8872;-78
2021/08/22 07:15:52;;;;;;;;;7.75;7.75;;;;;;;;5062775;28;8983;-80
2021/08/22 07:18:19;;;;;;;;;6.25;5.00;;;;;;;;5065494;28;8890;-80
2021/08/22 07:20:46;;;;;;;;;9.00;7.25;;;;;;;;5064974;28;8852;-81
2021/08/22 07:23:13;;;;;;;;;9.00;7.00;;;;;;;;5066651;28;8840;-79
2021/08/22 07:25:41;;;;;;;;;8.00;6.00;;;;;;;;5054091;28;8844;-79
2021/08/22 07:28:08;;;;;;;;;6.00;6.00;;;;;;;;5064446;28;8898;-78
2021/08/22 07:30:36;;;;;;;;;6.00;6.00;;;;;;;;5059288;28;8804;-78
2021/08/22 07:33:05;;;;;;;;;7.50;7.50;;;;;;;;5058677;28;8884;-78
2021/08/22 07:35:32;;;;;;;;;6.25;6.00;;;;;;;;5064898;28;8864;-79
2021/08/22 07:37:59;;;;;;;;;7.75;7.75;;;;;;;;5061505;28;8855;-78
2021/08/22 07:40:27;;;;;;;;;6.00;6.00;;;;;;;;5057084;28;8836;-79
2021/08/22 07:42:54;;;;;;;;;7.75;7.75;;;;;;;;5054836;28;8862;-79
2021/08/22 07:45:21;;;;;;;;;7.50;6.00;;;;;;;;5059830;28;8836;-82
2021/08/22 07:47:48;;;;;;;;;7.00;7.00;;;;;;;;5049068;28;9616;-78
2021/08/22 07:50:17;;;;;;;;;8.75;8.50;;;;;;;;5049904;28;8875;-79
2021/08/22 07:52:45;;;;;;;;;9.50;6.50;;;;;;;;5054266;28;8856;-80
2021/08/22 07:55:13;;;;;;;;;6.75;5.25;;;;;;;;5063144;28;8899;-77
2021/08/22 07:57:40;;;;;;;;;6.25;6.25;;;;;;;;5049681;28;8862;-78
2021/08/22 08:00:08;;;;;;;;;5.50;5.00;;;;;;;;5065403;28;9795;-80
2021/08/22 08:02:35;;;;;;;;;7.00;7.00;;;;;;;;5059990;28;8836;-78
2021/08/22 08:05:03;;;;;;;;;6.75;6.75;;;;;;;;5054112;28;9044;-76
2021/08/22 08:07:31;;;;;;;;;6.25;6.25;;;;;;;;5062436;28;8987;-78
2021/08/22 08:09:59;;;;;;;;;7.50;7.50;;;;;;;;5049435;28;8882;-75
2021/08/22 08:12:27;;;;;;;;;6.00;6.00;;;;;;;;5047545;28;8901;-75
2021/08/22 08:14:54;;;;;;;;;8.25;7.25;;;;;;;;5051850;28;8860;-75
2021/08/22 08:17:21;;;;;;;;;9.00;7.50;;;;;;;;5048609;28;8889;-75
2021/08/22 08:19:49;;;;;;;;;7.00;7.00;;;;;;;;5051704;28;8880;-76
2021/08/22 08:22:16;;;;;;;;;8.50;8.00;;;;;;;;5055070;28;8902;-75
2021/08/22 08:24:45;;;;;;;;;7.20;7.20;;;;;;;;5060502;28;8864;-75
2021/08/22 08:27:13;;;;;;;;;6.75;6.00;;;;;;;;5059378;28;8910;-76
2021/08/22 08:29:40;;;;;;;;;6.00;5.00;;;;;;;;5058161;28;8980;-76
2021/08/22 08:32:08;;;;;;;;;6.00;6.00;;;;;;;;5058998;28;8874;-76
2021/08/22 08:34:36;;;;;;;;;8.80;7.40;;;;;;;;5063238;28;8864;-76
2021/08/22 08:37:03;;;;;;;;;6.40;6.40;;;;;;;;5062774;28;8946;-76
2021/08/22 08:39:31;;;;;;;;;8.00;6.20;;;;;;;;5059133;28;8860;-75
2021/08/22 08:42:15;;;;;;;;;7.80;5.00;;;;;;;;5064215;28;8864;-76
2021/08/22 08:44:43;;;;;;;;;9.00;7.40;;;;;;;;5062562;28;9723;-76
2021/08/22 08:47:10;;;;;;;;;6.20;6.20;;;;;;;;5064091;28;8910;-76
2021/08/22 08:49:39;;;;;;;;;6.20;5.60;;;;;;;;5053826;28;8852;-76
2021/08/22 08:52:10;;;;;;;;;8.00;5.00;;;;;;;;5063502;28;8876;-76
2021/08/22 08:54:38;;;;;;;;;5.60;5.60;;;;;;;;5062620;28;8875;-75
2021/08/22 08:57:05;;;;;;;;;5.00;5.00;;;;;;;;5060596;28;8918;-75
2021/08/22 08:59:35;;;;;;;;;3.00;3.00;;;;;;;;5055122;28;8872;-76
2021/08/22 09:02:03;;;;;;;;;8.80;6.80;;;;;;;;5041595;28;8818;-75
2021/08/22 09:04:32;;;;;;;;;5.00;5.00;;;;;;;;5045937;28;8879;-76
2021/08/22 09:07:37;;;;;;;;;6.20;6.20;;;;;;;;5059698;28;8868;-76
2021/08/22 09:10:38;;;;;;;;;5.80;4.00;;;;;;;;5018034;28;8878;-77
2021/08/22 09:13:50;;;;;;;;;4.60;3.40;;;;;;;;5023134;28;8847;-76
2021/08/22 09:17:04;;;;;;;;;5.80;3.60;;;;;;;;5035505;28;8887;-77
2021/08/22 09:20:08;;;;;;;;;5.20;4.60;;;;;;;;5042485;28;9010;-77
2021/08/22 09:23:13;;;;;;;;;5.20;5.20;;;;;;;;5064411;28;9478;-77
2021/08/22 09:26:17;;;;;;;;;6.80;6.80;;;;;;;;5066305;28;8912;-76
2021/08/22 09:29:44;;;;;;;;;5.00;4.20;;;;;;;;5057776;28;8879;-77
2021/08/22 09:32:48;;;;;;;;;7.60;6.60;;;;;;;;4980455;28;8831;-76
2021/08/22 09:35:55;;;;;;;;;7.00;5.80;;;;;;;;5049276;28;8891;-77
2021/08/22 09:38:58;;;;;;;;;6.20;5.80;;;;;;;;5058804;28;8872;-76
2021/08/22 09:42:13;;;;;;;;;5.00;5.00;;;;;;;;5061439;28;8856;-77
2021/08/22 09:45:24;;;;;;;;;7.00;7.00;;;;;;;;5050795;28;9675;-76
2021/08/22 09:48:29;;;;;;;;;6.00;6.00;;;;;;;;5052794;28;8899;-77
2021/08/22 09:51:35;;;;;;;;;5.80;5.80;;;;;;;;5060213;28;8860;-77
2021/08/22 09:55:02;;;;;;;;;4.00;4.00;;;;;;;;5047998;28;8970;-78
2021/08/22 09:58:11;;;;;;;;;7.00;7.00;;;;;;;;5019324;28;8900;-78
2021/08/22 10:01:20;;;;;;;;;4.40;4.40;;;;;;;;5052605;28;8957;-77
2021/08/22 10:04:11;;;;;;;;;4.40;4.00;;;;;;;;5059079;28;8853;-77
2021/08/22 10:07:17;;;;;;;;;2.00;2.00;;;;;;;;5059582;28;8898;-77
2021/08/22 10:09:49;;;;;;;;;1.40;1.00;;;;;;;;5041479;28;8876;-77
2021/08/22 10:12:18;;;;;;;;;2.00;2.00;;;;;;;;5065404;28;9034;-76
2021/08/22 10:14:45;;;;;;;;;3.00;3.00;;;;;;;;5063136;28;8938;-75
2021/08/22 10:17:19;;;;;;;;;4.00;4.00;;;;;;;;5050911;28;8867;-77
2021/08/22 10:19:48;;;;;;;;;2.00;2.00;;;;;;;;5059956;28;8899;-77
2021/08/22 10:22:18;;;;;;;;;3.40;3.40;;;;;;;;5060896;28;8879;-78
2021/08/22 10:24:56;;;;;;;;;3.20;3.20;;;;;;;;5062663;28;8875;-76
2021/08/22 10:27:51;;;;;;;;;4.20;4.20;;;;;;;;5056868;28;8859;-78
2021/08/22 10:30:20;;;;;;;;;2.40;2.40;;;;;;;;5058654;28;8848;-79
2021/08/22 10:33:13;;;;;;;;;3.00;3.00;;;;;;;;5062679;28;8863;-79
2021/08/22 10:35:42;;;;;;;;;1.80;1.80;;;;;;;;5060728;28;8894;-78
2021/08/22 10:38:29;;;;;;;;;1.00;1.00;;;;;;;;5057760;28;8898;-78
2021/08/22 10:40:57;;;;;;;;;2.50;2.50;;;;;;;;5048947;28;8879;-83
2021/08/22 10:43:45;;;;;;;;;4.75;4.75;;;;;;;;5059491;28;8843;-77
2021/08/22 10:46:16;;;;;;;;;7.25;7.25;;;;;;;;5060814;28;8917;-79
2021/08/22 10:48:54;;;;;;;;;11.00;11.00;;;;;;;;5061077;28;8859;-79
2021/08/22 10:51:35;;;;;;;;;9.00;9.00;;;;;;;;5061673;28;8957;-81
2021/08/22 10:54:21;;;;;;;;;9.25;9.25;;;;;;;;5060198;28;8966;-78
2021/08/22 10:56:49;;;;;;;;;6.75;5.25;;;;;;;;5063367;28;8891;-78
2021/08/22 10:59:16;;;;;;;;;3.00;3.00;;;;;;;;5061845;28;8844;-78
2021/08/22 11:01:44;;;;;;;;;3.00;3.00;;;;;;;;5060766;28;8816;-79
2021/08/22 11:04:13;;;;;;;;;1.00;1.00;;;;;;;;5060976;28;8975;-79
2021/08/22 11:06:56;;;;;;;;;1.20;1.20;;;;;;;;5062908;28;8852;-79
2021/08/22 11:09:41;;;;;;;;;2.00;2.00;;;;;;;;5062805;28;8860;-79
2021/08/22 11:12:27;;;;;;;;;2.00;2.00;;;;;;;;5055846;28;8848;-78
2021/08/22 11:14:55;;;;;;;;;3.40;2.00;;;;;;;;5061974;28;8902;-79
2021/08/22 11:17:30;;;;;;;;;2.40;2.40;;;;;;;;5064342;28;8871;-78
2021/08/22 11:20:10;;;;;;;;;3.00;3.00;;;;;;;;5062476;28;8872;-79
2021/08/22 11:22:39;;;;;;;;;5.00;3.00;;;;;;;;5060732;28;8856;-78
2021/08/22 11:25:08;;;;;;;;;2.00;2.00;;;;;;;;5061455;28;9505;-79
2021/08/22 11:27:35;;;;;;;;;2.00;2.00;;;;;;;;5059487;28;8864;-77
2021/08/22 11:30:05;;;;;;;;;2.40;2.40;;;;;;;;5060921;28;8876;-78
2021/08/22 11:32:32;;;;;;;;;2.00;2.00;;;;;;;;5058319;28;8855;-80
2021/08/22 11:35:16;;;;;;;;;2.00;2.00;;;;;;;;5056084;28;8930;-80
2021/08/22 11:37:46;;;;;;;;;4.40;3.00;;;;;;;;5060469;28;8873;-78
2021/08/22 11:40:15;;;;;;;;;3.00;3.00;;;;;;;;5062532;28;8888;-82
2021/08/22 11:42:47;;;;;;;;;3.60;3.00;;;;;;;;5062101;28;8859;-80
2021/08/22 11:45:16;;;;;;;;;2.60;2.60;;;;;;;;5059594;28;8884;-81
2021/08/22 11:47:44;;;;;;;;;3.20;3.20;;;;;;;;5058422;28;8856;-80
2021/08/22 11:50:13;;;;;;;;;2.40;2.40;;;;;;;;5052620;28;8891;-80
2021/08/22 11:52:43;;;;;;;;;3.80;3.80;;;;;;;;5059073;28;8836;-83
2021/08/22 11:55:14;;;;;;;;;3.60;3.60;;;;;;;;5060364;28;8860;-81
2021/08/22 11:57:42;;;;;;;;;2.80;2.20;;;;;;;;5055942;28;8890;-86
2021/08/22 12:00:11;;;;;;;;;2.00;2.00;;;;;;;;5048269;28;8858;-85
2021/08/22 12:02:38;;;;;;;;;2.20;2.20;;;;;;;;5066108;28;8886;-80
2021/08/22 12:05:22;;;;;;;;;3.40;2.00;;;;;;;;5073957;28;8883;-80
2021/08/22 12:07:50;;;;;;;;;1.60;1.60;;;;;;;;5052756;28;8876;-81
2021/08/22 12:10:25;;;;;;;;;1.20;1.20;;;;;;;;5066594;28;9598;-82
2021/08/22 12:12:53;;;;;;;;;2.00;2.00;;;;;;;;5059556;28;9546;-77
2021/08/22 12:15:28;;;;;;;;;2.80;2.80;;;;;;;;5062228;28;8995;-78
2021/08/22 12:18:23;;;;;;;;;2.60;2.60;;;;;;;;5065947;28;8880;-77
2021/08/22 12:20:52;;;;;;;;;3.00;3.00;;;;;;;;5063127;28;9669;-74
2021/08/22 12:23:28;;;;;;;;;2.40;2.40;;;;;;;;5066736;28;9688;-75
2021/08/22 12:25:57;;;;;;;;;2.40;2.40;;;;;;;;5053634;28;8923;-77
2021/08/22 12:28:27;;;;;;;;;2.00;2.00;;;;;;;;5052323;28;8900;-76
2021/08/22 12:31:06;;;;;;;;;2.40;2.40;;;;;;;;5059661;28;8797;-76
2021/08/22 12:33:35;;;;;;;;;3.00;3.00;;;;;;;;5061293;28;8881;-76
2021/08/22 12:36:14;;;;;;;;;2.80;2.80;;;;;;;;5065202;28;8878;-77
2021/08/22 12:38:58;;;;;;;;;3.80;2.80;;;;;;;;5059587;28;8875;-76
2021/08/22 12:41:32;;;;;;;;;5.60;2.80;;;;;;;;5061278;28;8856;-75
2021/08/22 12:44:01;;;;;;;;;0.60;0.60;;;;;;;;5057786;28;9753;-75
2021/08/22 12:46:32;;;;;;;;;1.00;1.00;;;;;;;;5065989;28;8872;-77
2021/08/22 12:48:59;;;;;;;;;0.80;0.80;;;;;;;;5060890;28;8885;-78
2021/08/22 12:51:28;;;;;;;;;1.40;1.00;;;;;;;;5060507;28;8868;-77
2021/08/22 12:53:56;;;;;;;;;1.00;1.00;;;;;;;;5051943;28;9549;-78
2021/08/22 12:56:25;;;;;;;;;0.40;0.00;;;;;;;;5051574;28;8883;-76
2021/08/22 12:58:54;;;;;;;;;1.00;1.00;;;;;;;;5058345;28;8894;-77
2021/08/22 13:01:21;;;;;;;;;0.60;0.60;;;;;;;;5060003;28;8796;-76
2021/08/22 13:03:48;;;;;;;;;2.00;2.00;;;;;;;;5065266;28;9756;-76
2021/08/22 13:06:16;;;;;;;;;2.00;2.00;;;;;;;;5059493;28;8852;-77
2021/08/22 13:08:43;;;;;;;;;1.00;1.00;;;;;;;;5064485;28;8995;-79
2021/08/22 13:11:11;;;;;;;;;0.00;0.00;;;;;;;;5055466;28;8876;-76
2021/08/22 13:13:40;;;;;;;;;2.00;2.00;;;;;;;;5061583;28;8876;-76
2021/08/22 13:16:08;;;;;;;;;0.80;0.80;;;;;;;;5058309;28;8867;-75
2021/08/22 13:18:35;;;;;;;;;0.60;0.60;;;;;;;;5059926;28;8866;-76
2021/08/22 13:21:04;;;;;;;;;1.20;1.00;;;;;;;;5048925;28;8898;-75
2021/08/22 13:23:32;;;;;;;;;0.80;0.80;;;;;;;;5055184;28;8835;-76
2021/08/22 13:26:00;;;;;;;;;0.80;0.80;;;;;;;;5050479;28;8977;-76
2021/08/22 13:28:28;;;;;;;;;0.00;0.00;;;;;;;;5051488;28;8987;-76
2021/08/22 13:30:57;;;;;;;;;0.20;0.20;;;;;;;;5063038;28;8819;-76
2021/08/22 13:33:25;;;;;;;;;0.00;0.00;;;;;;;;5065287;28;8913;-77
2021/08/22 13:35:52;;;;;;;;;1.20;0.80;;;;;;;;5057499;28;8868;-76
2021/08/22 13:38:19;;;;;;;;;0.60;0.60;;;;;;;;5064958;28;8892;-76
2021/08/22 13:40:47;;;;;;;;;0.40;0.40;;;;;;;;5063999;28;9606;-76
2021/08/22 13:43:15;;;;;;;;;0.00;0.00;;;;;;;;5064577;28;8987;-76
2021/08/22 13:45:42;;;;;;;;;0.00;0.00;;;;;;;;5058374;28;8963;-76
2021/08/22 13:48:11;;;;;;;;;0.40;0.20;;;;;;;;5063823;28;8880;-75
2021/08/22 13:50:39;;;;;;;;;0.20;0.20;;;;;;;;5058379;28;8872;-76
2021/08/22 13:53:08;;;;;;;;;0.00;0.00;;;;;;;;5062803;28;8872;-75
2021/08/22 13:55:35;;;;;;;;;0.40;0.40;;;;;;;;5059220;28;8872;-76
2021/08/22 13:58:04;;;;;;;;;0.00;0.00;;;;;;;;5063860;28;8977;-76
2021/08/22 14:00:33;;;;;;;;;1.00;1.00;;;;;;;;5056703;28;8805;-77
2021/08/22 14:03:00;;;;;;;;;0.00;0.00;;;;;;;;5059635;28;8874;-77
2021/08/22 14:05:29;;;;;;;;;0.80;0.80;;;;;;;;5058763;28;8880;-77
2021/08/22 14:07:56;;;;;;;;;0.00;0.00;;;;;;;;5064799;28;9050;-76
2021/08/22 14:10:23;;;;;;;;;0.40;0.40;;;;;;;;5061736;28;8910;-76
2021/08/22 14:12:51;;;;;;;;;0.00;0.00;;;;;;;;5056798;28;8862;-77
2021/08/22 14:15:18;;;;;;;;;1.00;1.00;;;;;;;;5062901;28;8876;-76
2021/08/22 14:17:46;;;;;;;;;1.00;1.00;;;;;;;;5062656;28;8898;-76
2021/08/22 14:20:14;;;;;;;;;0.20;0.20;;;;;;;;5052352;28;9013;-76
2021/08/22 14:22:43;;;;;;;;;0.00;0.00;;;;;;;;5059185;28;8868;-75
2021/08/22 14:25:10;;;;;;;;;3.00;0.00;;;;;;;;5062738;28;8856;-75
2021/08/22 14:27:38;;;;;;;;;0.20;0.20;;;;;;;;5056329;28;8860;-75
2021/08/22 14:30:07;;;;;;;;;0.80;0.80;;;;;;;;5062281;28;8898;-75
2021/08/22 14:32:35;;;;;;;;;1.60;0.60;;;;;;;;5063499;28;9348;-76
2021/08/22 14:35:03;;;;;;;;;0.80;0.00;;;;;;;;5059767;28;8856;-76
2021/08/22 14:37:31;;;;;;;;;0.80;0.80;;;;;;;;5063672;28;8836;-75
2021/08/22 14:40:00;;;;;;;;;0.00;0.00;;;;;;;;5059806;28;8860;-75
2021/08/22 14:42:27;;;;;;;;;2.60;1.00;;;;;;;;5062443;28;8856;-76
2021/08/22 14:44:55;;;;;;;;;1.60;0.80;;;;;;;;5058583;28;9727;-76
2021/08/22 14:47:23;;;;;;;;;1.00;1.00;;;;;;;;5059051;28;8864;-76
2021/08/22 14:49:50;;;;;;;;;2.00;0.60;;;;;;;;5050660;28;8859;-76
2021/08/22 14:52:21;;;;;;;;;3.60;1.40;;;;;;;;5059169;28;8856;-77
2021/08/22 14:54:48;;;;;;;;;2.60;1.00;;;;;;;;5063029;28;8868;-77
2021/08/22 14:57:17;;;;;;;;;1.00;1.00;;;;;;;;5057489;28;8872;-76
2021/08/22 14:59:44;;;;;;;;;2.60;2.00;;;;;;;;5062811;28;8848;-76
2021/08/22 15:02:13;;;;;;;;;3.00;2.00;;;;;;;;5055563;28;9592;-76
2021/08/22 15:04:43;;;;;;;;;1.60;1.60;;;;;;;;5060343;28;8995;-77
2021/08/22 15:07:11;;;;;;;;;2.60;0.80;;;;;;;;5062354;28;8875;-75
2021/08/22 15:09:39;;;;;;;;;0.60;0.60;;;;;;;;5056050;28;8890;-76
2021/08/22 15:12:08;;;;;;;;;1.60;1.60;;;;;;;;5057514;28;9642;-76
2021/08/22 15:14:36;;;;;;;;;3.00;2.00;;;;;;;;5061529;28;8886;-76
2021/08/22 15:17:04;;;;;;;;;2.00;2.00;;;;;;;;5062705;28;8868;-77
2021/08/22 15:19:33;;;;;;;;;1.20;1.20;;;;;;;;5058741;28;8859;-76